sensor_id;sensor_type;location;lat;lon;timestamp;pressure;altitude;pressure_sealevel;temperature;humidity
31011;BME280;26395;53.412;19.598;2022-07-11T00:13:55;100324.51;;;13.86;100.00
31011;BME280;26395;53.412;19.598;2022-07-11T00:28:57;100317.16;;;13.98;100.00
31011;BME280;26395;53.412;19.598;2022-07-11T00:44:00;100309.86;;;13.92;100.00
31011;BME280;26395;53.412;19.598;2022-07-11T00:59:03;100310.27;;;13.79;100.00
31011;BME280;26395;53.412;19.598;2022-07-11T01:14:05;100308.16;;;13.56;100.00
31011;BME280;26395;53.412;19.598;2022-07-11T01:29:12;100293.89;;;13.67;100.00
31011;BME280;26395;53.412;19.598;2022-07-11T01:44:15;100279.38;;;13.63;100.00
31011;BME280;26395;53.412;19.598;2022-07-11T01:59:17;100251.16;;;13.55;100.00
31011;BME280;26395;53.412;19.598;2022-07-11T02:14:19;100238.80;;;13.82;100.00
31011;BME280;26395;53.412;19.598;2022-07-11T02:29:21;100252.63;;;13.84;100.00
31011;BME280;26395;53.412;19.598;2022-07-11T02:44:25;100247.88;;;13.88;100.00
31011;BME280;26395;53.412;19.598;2022-07-11T02:59:27;100270.66;;;13.97;100.00
31011;BME280;26395;53.412;19.598;2022-07-11T03:14:30;100270.63;;;13.89;100.00
31011;BME280;26395;53.412;19.598;2022-07-11T03:29:32;100283.58;;;13.74;100.00
31011;BME280;26395;53.412;19.598;2022-07-11T03:44:35;100293.55;;;13.62;100.00
31011;BME280;26395;53.412;19.598;2022-07-11T03:59:37;100297.77;;;13.55;100.00
31011;BME280;26395;53.412;19.598;2022-07-11T04:14:39;100330.80;;;13.67;100.00
31011;BME280;26395;53.412;19.598;2022-07-11T04:29:42;100330.91;;;13.57;100.00
31011;BME280;26395;53.412;19.598;2022-07-11T04:44:44;100337.08;;;13.66;100.00
31011;BME280;26395;53.412;19.598;2022-07-11T04:59:46;100329.05;;;14.02;100.00
31011;BME280;26395;53.412;19.598;2022-07-11T05:14:48;100339.17;;;14.58;100.00
31011;BME280;26395;53.412;19.598;2022-07-11T05:29:51;100344.89;;;14.79;100.00
31011;BME280;26395;53.412;19.598;2022-07-11T05:44:53;100338.66;;;15.05;100.00
31011;BME280;26395;53.412;19.598;2022-07-11T05:59:55;100353.21;;;15.42;100.00
31011;BME280;26395;53.412;19.598;2022-07-11T06:14:57;100364.61;;;15.76;100.00
31011;BME280;26395;53.412;19.598;2022-07-11T06:30:00;100373.02;;;16.04;100.00
31011;BME280;26395;53.412;19.598;2022-07-11T06:45:02;100371.88;;;15.99;100.00
31011;BME280;26395;53.412;19.598;2022-07-11T07:00:05;100369.88;;;16.01;100.00
31011;BME280;26395;53.412;19.598;2022-07-11T07:15:09;100375.97;;;16.57;100.00
31011;BME280;26395;53.412;19.598;2022-07-11T07:30:12;100387.14;;;17.16;100.00
31011;BME280;26395;53.412;19.598;2022-07-11T07:45:14;100383.20;;;17.73;100.00
31011;BME280;26395;53.412;19.598;2022-07-11T08:00:16;100383.82;;;18.13;100.00
31011;BME280;26395;53.412;19.598;2022-07-11T08:15:40;100361.60;;;19.89;98.93
31011;BME280;26395;53.412;19.598;2022-07-11T08:30:42;100358.08;;;20.17;96.36
31011;BME280;26395;53.412;19.598;2022-07-11T08:45:45;100357.80;;;21.08;92.93
31011;BME280;26395;53.412;19.598;2022-07-11T09:00:48;100350.21;;;21.05;87.67
31011;BME280;26395;53.412;19.598;2022-07-11T09:16:01;100369.95;;;21.44;88.67
31011;BME280;26395;53.412;19.598;2022-07-11T09:31:15;100373.80;;;21.08;84.03
31011;BME280;26395;53.412;19.598;2022-07-11T09:46:23;100394.43;;;20.80;83.80
31011;BME280;26395;53.412;19.598;2022-07-11T10:01:27;100385.11;;;19.63;87.82
31011;BME280;26395;53.412;19.598;2022-07-11T10:31:42;100371.71;;;22.83;89.20
31011;BME280;26395;53.412;19.598;2022-07-11T10:47:35;100370.94;;;24.46;82.10
31011;BME280;26395;53.412;19.598;2022-07-11T11:03:10;100356.48;;;25.86;77.27
31011;BME280;26395;53.412;19.598;2022-07-11T11:33:29;100368.88;;;25.51;66.86
31011;BME280;26395;53.412;19.598;2022-07-11T11:48:34;100389.45;;;25.27;65.91
31011;BME280;26395;53.412;19.598;2022-07-11T12:03:51;100413.38;;;23.87;71.70
31011;BME280;26395;53.412;19.598;2022-07-11T12:18:59;100405.53;;;23.92;76.92
31011;BME280;26395;53.412;19.598;2022-07-11T12:34:02;100401.11;;;26.22;74.67
31011;BME280;26395;53.412;19.598;2022-07-11T12:49:10;100417.93;;;26.70;67.58
31011;BME280;26395;53.412;19.598;2022-07-11T13:04:39;100400.14;;;25.57;64.05
31011;BME280;26395;53.412;19.598;2022-07-11T13:19:42;100410.17;;;26.45;64.19
31011;BME280;26395;53.412;19.598;2022-07-11T13:34:45;100419.72;;;23.67;66.21
31011;BME280;26395;53.412;19.598;2022-07-11T13:49:49;100436.06;;;21.89;70.83
31011;BME280;26395;53.412;19.598;2022-07-11T14:04:51;100446.11;;;22.41;73.97
31011;BME280;26395;53.412;19.598;2022-07-11T14:19:55;100461.81;;;23.60;71.28
31011;BME280;26395;53.412;19.598;2022-07-11T14:34:59;100454.42;;;23.81;74.98
31011;BME280;26395;53.412;19.598;2022-07-11T14:50:03;100448.36;;;25.40;73.89
31011;BME280;26395;53.412;19.598;2022-07-11T15:05:06;100462.88;;;25.63;70.56
31011;BME280;26395;53.412;19.598;2022-07-11T15:20:09;100466.63;;;25.74;67.16
31011;BME280;26395;53.412;19.598;2022-07-11T15:35:11;100471.72;;;24.72;65.70
31011;BME280;26395;53.412;19.598;2022-07-11T15:50:13;100475.18;;;24.36;66.08
31011;BME280;26395;53.412;19.598;2022-07-11T16:05:16;100485.23;;;24.22;63.98
31011;BME280;26395;53.412;19.598;2022-07-11T16:20:19;100486.50;;;23.87;63.75
31011;BME280;26395;53.412;19.598;2022-07-11T16:35:22;100495.95;;;23.65;64.67
31011;BME280;26395;53.412;19.598;2022-07-11T16:50:25;100503.20;;;23.25;64.96
31011;BME280;26395;53.412;19.598;2022-07-11T17:05:41;100496.03;;;23.19;65.86
31011;BME280;26395;53.412;19.598;2022-07-11T17:20:44;100503.02;;;22.55;66.53
31011;BME280;26395;53.412;19.598;2022-07-11T17:35:50;100520.12;;;21.18;69.17
31011;BME280;26395;53.412;19.598;2022-07-11T17:50:53;100527.33;;;20.54;72.39
31011;BME280;26395;53.412;19.598;2022-07-11T18:06:15;100529.02;;;20.05;74.83
31011;BME280;26395;53.412;19.598;2022-07-11T18:21:18;100544.14;;;19.61;76.03
31011;BME280;26395;53.412;19.598;2022-07-11T18:36:20;100545.39;;;19.44;76.82
31011;BME280;26395;53.412;19.598;2022-07-11T18:51:23;100555.22;;;18.84;77.88
31011;BME280;26395;53.412;19.598;2022-07-11T19:06:26;100564.25;;;18.59;80.34
31011;BME280;26395;53.412;19.598;2022-07-11T19:21:28;100568.63;;;18.37;82.65
31011;BME280;26395;53.412;19.598;2022-07-11T19:36:33;100574.09;;;17.98;84.66
31011;BME280;26395;53.412;19.598;2022-07-11T19:51:36;100566.44;;;17.71;86.96
31011;BME280;26395;53.412;19.598;2022-07-11T20:06:38;100570.89;;;17.39;89.74
31011;BME280;26395;53.412;19.598;2022-07-11T20:21:42;100568.81;;;17.26;91.87
31011;BME280;26395;53.412;19.598;2022-07-11T20:36:45;100563.24;;;17.13;94.05
31011;BME280;26395;53.412;19.598;2022-07-11T20:51:48;100557.17;;;16.96;95.90
31011;BME280;26395;53.412;19.598;2022-07-11T21:06:51;100567.12;;;16.69;97.84
31011;BME280;26395;53.412;19.598;2022-07-11T21:21:54;100562.47;;;16.96;99.98
31011;BME280;26395;53.412;19.598;2022-07-11T21:36:56;100561.97;;;16.76;100.00
31011;BME280;26395;53.412;19.598;2022-07-11T21:51:59;100567.14;;;16.61;100.00
31011;BME280;26395;53.412;19.598;2022-07-11T22:07:01;100569.13;;;16.51;100.00
31011;BME280;26395;53.412;19.598;2022-07-11T22:22:04;100560.53;;;16.40;100.00
31011;BME280;26395;53.412;19.598;2022-07-11T22:37:10;100561.72;;;16.13;100.00
31011;BME280;26395;53.412;19.598;2022-07-11T22:52:12;100567.99;;;16.12;100.00
31011;BME280;26395;53.412;19.598;2022-07-11T23:07:35;100583.70;;;16.05;100.00
31011;BME280;26395;53.412;19.598;2022-07-11T23:22:38;100565.18;;;16.05;100.00
31011;BME280;26395;53.412;19.598;2022-07-11T23:37:42;100574.10;;;16.04;100.00
31011;BME280;26395;53.412;19.598;2022-07-11T23:52:45;100566.84;;;16.06;100.00
